createdAt,value
2022-10-11T00:02:05.404Z,3.08
2022-10-11T00:04:36.699Z,5.45
2022-10-11T00:07:07.887Z,3.27
2022-10-11T00:09:39.261Z,3.85
2022-10-11T00:12:10.713Z,3.37
2022-10-11T00:14:41.975Z,3.22
2022-10-11T00:17:13.504Z,3.90
2022-10-11T00:19:45.178Z,3.10
2022-10-11T00:22:16.461Z,3.12
2022-10-11T00:24:47.771Z,3.83
2022-10-11T00:27:19.415Z,3.42
2022-10-11T00:29:50.750Z,2.92
2022-10-11T00:32:22.092Z,3.42
2022-10-11T00:34:53.800Z,2.85
2022-10-11T00:37:25.048Z,2.87
2022-10-11T00:39:56.276Z,3.10
2022-10-11T00:42:28.268Z,2.37
2022-10-11T00:45:35.594Z,2.90
2022-10-11T00:48:09.997Z,2.65
2022-10-11T00:50:42.245Z,2.92
2022-10-11T00:53:14.213Z,2.30
2022-10-11T00:55:48.597Z,3.17
2022-10-11T00:58:21.845Z,2.70
2022-10-11T01:00:54.056Z,2.47
2022-10-11T01:03:27.832Z,2.47
2022-10-11T01:05:59.191Z,2.35
2022-10-11T01:08:31.069Z,2.55
2022-10-11T01:11:03.670Z,2.22
2022-10-11T01:13:43.590Z,4.22
2022-10-11T01:16:18.191Z,2.98
2022-10-11T01:18:53.389Z,2.67
2022-10-11T01:21:32.431Z,2.77
2022-10-11T01:24:48.966Z,3.12
2022-10-11T01:27:32.380Z,3.15
2022-10-11T01:30:20.965Z,2.83
2022-10-11T01:33:01.036Z,2.87
2022-10-11T01:35:35.703Z,2.63
2022-10-11T01:38:11.218Z,2.35
2022-10-11T01:40:45.723Z,2.42
2022-10-11T01:43:17.655Z,2.55
2022-10-11T01:45:52.785Z,2.30
2022-10-11T01:48:24.142Z,2.08
2022-10-11T01:50:57.009Z,2.00
2022-10-11T01:53:43.706Z,2.90
2022-10-11T01:56:25.176Z,1.92
2022-10-11T01:59:08.604Z,2.50
2022-10-11T02:01:44.279Z,2.85
2022-10-11T02:04:18.746Z,2.17
2022-10-11T02:06:54.030Z,3.10
2022-10-11T02:09:28.564Z,2.77
2022-10-11T02:12:03.395Z,2.92
2022-10-11T02:14:37.984Z,4.42
2022-10-11T02:17:13.496Z,3.00
2022-10-11T02:19:47.860Z,3.25
2022-10-11T02:22:22.860Z,2.40
2022-10-11T02:24:57.132Z,2.02
2022-10-11T02:27:31.604Z,2.05
2022-10-11T02:30:07.192Z,2.60
2022-10-11T02:32:41.589Z,2.77
2022-10-11T02:35:14.015Z,2.50
2022-10-11T02:37:48.338Z,2.22
2022-10-11T02:40:22.883Z,2.75
2022-10-11T02:42:59.113Z,2.77
2022-10-11T02:45:33.603Z,3.60
2022-10-11T02:48:07.077Z,2.08
2022-10-11T02:50:40.366Z,2.52
2022-10-11T02:53:12.013Z,3.17
2022-10-11T02:55:43.230Z,2.45
2022-10-11T02:58:14.566Z,3.62
2022-10-11T03:00:46.198Z,2.33
2022-10-11T03:03:17.394Z,2.05
2022-10-11T03:05:48.661Z,2.77
2022-10-11T03:08:19.995Z,2.15
2022-10-11T03:10:51.266Z,2.75
2022-10-11T03:13:22.661Z,3.90
2022-10-11T03:16:03.236Z,2.30
2022-10-11T03:18:28.648Z,2.47
2022-10-11T03:20:59.876Z,2.62
2022-10-11T03:23:31.188Z,2.55
2022-10-11T03:26:02.757Z,2.67
2022-10-11T03:28:34.389Z,2.33
2022-10-11T03:31:05.850Z,2.30
2022-10-11T03:33:37.281Z,2.40
2022-10-11T03:36:09.382Z,2.47
2022-10-11T03:38:40.872Z,2.92
2022-10-11T03:41:12.241Z,2.80
2022-10-11T03:43:43.566Z,2.85
2022-10-11T03:46:15.346Z,2.98
2022-10-11T03:48:46.547Z,2.17
2022-10-11T03:51:17.769Z,3.30
2022-10-11T03:53:48.980Z,2.10
2022-10-11T03:56:20.379Z,2.27
2022-10-11T03:58:51.704Z,2.30
2022-10-11T04:01:23.157Z,2.60
2022-10-11T04:03:57.628Z,2.70
2022-10-11T04:06:28.845Z,2.80
2022-10-11T04:09:00.859Z,2.50
2022-10-11T04:11:32.909Z,2.92
2022-10-11T04:14:04.104Z,3.98
2022-10-11T04:16:35.343Z,3.15
2022-10-11T04:21:36.449Z,3.50
2022-10-11T04:24:08.541Z,2.95
2022-10-11T04:26:39.899Z,2.52
2022-10-11T04:29:11.825Z,3.90
2022-10-11T04:31:43.448Z,2.70
2022-10-11T04:34:14.634Z,3.00
2022-10-11T04:36:49.728Z,6.35
2022-10-11T04:39:19.394Z,3.25
2022-10-11T04:41:50.850Z,2.42
2022-10-11T04:44:21.963Z,3.47
2022-10-11T04:46:53.224Z,3.05
2022-10-11T04:49:24.965Z,3.72
2022-10-11T04:51:56.158Z,4.58
2022-10-11T04:54:27.768Z,3.10
2022-10-11T04:56:59.069Z,3.60
2022-10-11T04:59:30.967Z,3.02
2022-10-11T05:02:02.340Z,3.85
2022-10-11T05:04:33.843Z,2.95
2022-10-11T05:07:06.496Z,2.92
2022-10-11T05:09:37.661Z,3.10
2022-10-11T05:12:09.975Z,3.83
2022-10-11T05:14:41.390Z,2.85
2022-10-11T05:17:12.639Z,3.05
2022-10-11T05:19:43.855Z,4.12
2022-10-11T05:22:14.976Z,2.90
2022-10-11T05:24:46.348Z,2.75
2022-10-11T05:27:17.494Z,3.37
2022-10-11T05:29:48.621Z,3.00
2022-10-11T05:32:19.899Z,3.35
2022-10-11T05:34:51.098Z,2.98
2022-10-11T05:37:22.498Z,3.50
2022-10-11T05:39:53.893Z,3.40
2022-10-11T05:42:25.438Z,3.05
2022-10-11T05:44:56.572Z,4.12
2022-10-11T05:47:27.817Z,3.58
2022-10-11T05:49:59.043Z,3.37
2022-10-11T05:52:31.519Z,3.30
2022-10-11T05:55:03.465Z,3.12
2022-10-11T05:57:35.073Z,3.08
2022-10-11T06:00:08.262Z,4.67
2022-10-11T06:02:39.559Z,3.20
2022-10-11T06:05:11.671Z,3.60
2022-10-11T06:07:43.001Z,4.60
2022-10-11T06:10:14.719Z,3.37
2022-10-11T06:12:45.938Z,2.45
2022-10-11T06:15:17.296Z,3.77
2022-10-11T06:17:49.246Z,3.65
2022-10-11T06:20:20.695Z,4.00
2022-10-11T06:22:52.121Z,3.67
2022-10-11T06:25:23.289Z,2.92
2022-10-11T06:27:54.683Z,3.30
2022-10-11T06:30:25.969Z,8.18
2022-10-11T06:33:01.105Z,3.00
2022-10-11T06:35:30.123Z,2.95
2022-10-11T06:38:01.702Z,4.92
2022-10-11T06:40:33.210Z,2.83
2022-10-11T06:43:04.461Z,2.47
2022-10-11T06:45:35.720Z,3.00
2022-10-11T06:48:07.878Z,3.37
2022-10-11T06:50:58.373Z,2.87
2022-10-11T06:53:12.849Z,2.67
2022-10-11T06:55:44.067Z,2.83
2022-10-11T06:58:15.181Z,2.10
2022-10-11T07:00:46.423Z,4.00
2022-10-11T07:03:17.722Z,3.83
2022-10-11T07:05:49.096Z,2.30
2022-10-11T07:08:20.410Z,3.85
2022-10-11T07:10:52.278Z,2.50
2022-10-11T07:13:24.925Z,2.77
2022-10-11T07:15:56.320Z,3.17
2022-10-11T07:18:27.533Z,2.92
2022-10-11T07:20:58.974Z,2.77
2022-10-11T07:23:30.232Z,2.17
2022-10-11T07:26:01.974Z,2.55
2022-10-11T07:28:34.423Z,2.50
2022-10-11T07:31:08.523Z,4.05
2022-10-11T07:33:40.218Z,2.42
2022-10-11T07:36:13.344Z,2.85
2022-10-11T07:38:47.510Z,3.27
2022-10-11T07:41:19.775Z,3.02
2022-10-11T07:43:51.167Z,2.60
2022-10-11T07:46:22.468Z,2.70
2022-10-11T07:48:53.627Z,2.83
2022-10-11T07:51:26.136Z,3.15
2022-10-11T07:54:01.294Z,2.47
2022-10-11T07:56:31.894Z,2.92
2022-10-11T07:59:03.832Z,2.67
2022-10-11T08:01:35.168Z,2.65
2022-10-11T08:04:06.780Z,3.37
2022-10-11T08:06:38.101Z,2.72
2022-10-11T08:09:10.269Z,1.92
2022-10-11T08:11:41.528Z,2.52
2022-10-11T08:14:13.291Z,2.27
2022-10-11T08:16:44.533Z,2.00
2022-10-11T08:19:16.047Z,2.33
2022-10-11T08:21:47.443Z,2.50
2022-10-11T08:24:20.795Z,2.77
2022-10-11T08:26:52.123Z,2.40
2022-10-11T08:29:23.400Z,1.98
2022-10-11T08:31:55.454Z,2.60
2022-10-11T08:34:26.656Z,4.00
2022-10-11T08:36:57.599Z,2.58
2022-10-11T08:39:28.821Z,2.87
2022-10-11T08:42:03.082Z,2.67
2022-10-11T08:45:09.480Z,3.22
2022-10-11T08:47:16.860Z,2.67
2022-10-11T08:49:48.499Z,3.62
2022-10-11T08:52:24.074Z,3.65
2022-10-11T08:54:58.607Z,2.52
2022-10-11T08:57:32.230Z,2.60
2022-10-11T09:00:06.354Z,2.35
2022-10-11T09:03:06.234Z,2.40
2022-10-11T09:05:18.736Z,2.20
2022-10-11T09:07:54.291Z,2.47
2022-10-11T09:10:36.141Z,2.70
2022-10-11T09:13:11.473Z,2.65
2022-10-11T09:15:46.793Z,2.92
2022-10-11T09:18:34.942Z,3.85
2022-10-11T09:21:16.861Z,3.10
2022-10-11T09:24:03.547Z,2.40
2022-10-11T09:26:37.944Z,5.12
2022-10-11T09:29:13.201Z,2.85
2022-10-11T09:31:47.330Z,1.90
2022-10-11T09:34:19.301Z,2.95
2022-10-11T09:36:55.919Z,3.05
2022-10-11T09:39:31.106Z,2.87
2022-10-11T09:42:05.082Z,2.83
2022-10-11T09:44:39.074Z,2.90
2022-10-11T09:47:15.543Z,3.27
2022-10-11T09:49:52.036Z,2.62
2022-10-11T09:52:25.791Z,3.05
2022-10-11T09:55:00.551Z,2.30
2022-10-11T09:57:34.393Z,3.27
2022-10-11T10:00:16.118Z,2.37
2022-10-11T10:02:49.230Z,2.47
2022-10-11T10:05:23.065Z,2.83
2022-10-11T10:08:08.031Z,3.10
2022-10-11T10:10:41.849Z,3.12
2022-10-11T10:13:22.674Z,3.00
2022-10-11T10:18:44.433Z,3.10
2022-10-11T10:21:17.038Z,3.27
2022-10-11T10:23:51.314Z,2.55
2022-10-11T10:26:23.735Z,4.62
2022-10-11T10:29:01.345Z,3.52
2022-10-11T10:31:49.453Z,3.17
2022-10-11T10:34:14.240Z,3.15
2022-10-11T10:36:48.484Z,4.70
2022-10-11T10:39:22.990Z,4.12
2022-10-11T10:41:54.369Z,5.25
2022-10-11T10:44:25.688Z,3.08
2022-10-11T10:47:03.992Z,2.40
2022-10-11T10:49:54.947Z,3.10
2022-10-11T10:52:27.432Z,3.12
2022-10-11T10:55:01.700Z,5.87
2022-10-11T10:57:37.077Z,4.87
2022-10-11T11:00:16.037Z,3.00
2022-10-11T11:02:50.582Z,3.30
2022-10-11T11:05:30.073Z,2.90
2022-10-11T11:08:05.250Z,3.02
2022-10-11T11:10:39.846Z,5.72
2022-10-11T11:13:28.551Z,3.10
2022-10-11T11:16:05.302Z,17.37
2022-10-11T11:18:40.221Z,3.85
2022-10-11T11:21:19.955Z,2.20
2022-10-11T11:23:55.690Z,2.30
2022-10-11T11:26:30.684Z,2.33
2022-10-11T11:29:09.764Z,3.02
2022-10-11T11:31:55.940Z,2.45
2022-10-11T11:34:30.324Z,3.40
2022-10-11T11:37:04.521Z,3.30
2022-10-11T11:39:38.757Z,4.47
2022-10-11T11:42:13.388Z,3.37
2022-10-11T11:44:55.728Z,3.55
2022-10-11T11:47:31.160Z,2.95
2022-10-11T11:50:06.716Z,3.10
2022-10-11T11:52:41.037Z,4.05
2022-10-11T11:55:16.084Z,5.50
2022-10-11T11:57:56.576Z,5.78
2022-10-11T12:00:31.023Z,3.60
2022-10-11T12:03:05.291Z,3.58
2022-10-11T12:05:37.641Z,6.25
2022-10-11T12:08:11.104Z,5.00
2022-10-11T12:10:55.833Z,4.17
2022-10-11T12:13:32.618Z,3.98
2022-10-11T12:16:10.440Z,4.08
2022-10-11T12:18:55.245Z,6.75
2022-10-11T12:21:32.642Z,3.10
2022-10-11T12:24:12.393Z,5.50
2022-10-11T12:26:45.599Z,4.95
2022-10-11T12:29:47.113Z,5.12
2022-10-11T12:35:43.199Z,4.12
2022-10-11T12:38:19.829Z,4.65
2022-10-11T12:40:54.245Z,6.12
2022-10-11T12:43:38.891Z,5.47
2022-10-11T12:46:36.349Z,5.37
2022-10-11T12:49:19.074Z,4.97
2022-10-11T12:51:57.037Z,4.90
2022-10-11T12:54:55.232Z,5.03
2022-10-11T12:57:48.168Z,4.70
2022-10-11T13:00:26.849Z,6.30
2022-10-11T13:02:59.527Z,6.53
2022-10-11T13:05:33.969Z,6.25
2022-10-11T13:08:08.136Z,5.70
2022-10-11T13:10:44.128Z,6.05
2022-10-11T13:13:20.685Z,5.28
2022-10-11T13:15:54.885Z,6.00
2022-10-11T13:18:27.912Z,5.78
2022-10-11T13:20:59.132Z,5.00
2022-10-11T13:23:33.211Z,4.97
2022-10-11T13:26:05.364Z,6.12
2022-10-11T13:28:37.643Z,4.65
2022-10-11T13:31:10.638Z,4.75
2022-10-11T13:33:45.884Z,5.15
2022-10-11T13:36:19.381Z,6.15
2022-10-11T13:38:57.110Z,6.12
2022-10-11T13:41:30.885Z,5.12
2022-10-11T13:44:04.836Z,4.87
2022-10-11T13:46:38.183Z,4.47
2022-10-11T13:49:25.785Z,4.90
2022-10-11T13:52:01.926Z,5.28
2022-10-11T13:54:55.656Z,5.08
2022-10-11T13:57:35.835Z,5.70
2022-10-11T14:00:26.739Z,5.60
2022-10-11T14:03:00.928Z,4.83
2022-10-11T14:05:34.956Z,5.40
2022-10-11T14:08:09.687Z,5.33
2022-10-11T14:10:42.458Z,5.70
2022-10-11T14:13:26.662Z,5.42
2022-10-11T14:16:04.064Z,4.62
2022-10-11T14:18:47.613Z,4.30
2022-10-11T14:21:35.069Z,4.95
2022-10-11T14:24:10.418Z,5.30
2022-10-11T14:26:46.033Z,5.53
2022-10-11T14:29:20.793Z,3.95
2022-10-11T14:31:55.265Z,6.42
2022-10-11T14:34:28.099Z,4.25
2022-10-11T14:36:59.511Z,4.90
2022-10-11T14:39:33.963Z,5.78
2022-10-11T14:42:05.425Z,4.60
2022-10-11T14:44:36.735Z,4.67
2022-10-11T14:47:08.891Z,5.33
2022-10-11T14:49:41.083Z,4.50
2022-10-11T14:52:15.212Z,5.95
2022-10-11T14:54:46.422Z,4.67
2022-10-11T14:57:17.640Z,6.75
2022-10-11T14:59:48.849Z,4.97
2022-10-11T15:02:20.177Z,7.05
2022-10-11T15:04:51.387Z,5.70
2022-10-11T15:07:22.827Z,4.87
2022-10-11T15:09:54.179Z,4.42
2022-10-11T15:12:25.557Z,5.42
2022-10-11T15:14:56.912Z,4.40
2022-10-11T15:17:28.108Z,4.75
2022-10-11T15:19:59.373Z,5.00
2022-10-11T15:22:30.652Z,4.33
2022-10-11T15:25:01.785Z,4.65
2022-10-11T15:27:32.995Z,4.70
2022-10-11T15:30:05.941Z,4.62
2022-10-11T15:32:38.318Z,5.05
2022-10-11T15:35:10.877Z,5.70
2022-10-11T15:37:42.544Z,5.42
2022-10-11T15:40:20.200Z,4.95
2022-10-11T15:42:53.090Z,5.87
2022-10-11T15:45:25.134Z,4.45
2022-10-11T15:47:57.714Z,3.98
2022-10-11T15:50:34.881Z,4.35
2022-10-11T15:53:07.933Z,5.95
2022-10-11T15:55:41.202Z,6.80
2022-10-11T15:58:15.440Z,4.70
2022-10-11T16:00:49.037Z,4.47
2022-10-11T16:03:21.522Z,4.42
2022-10-11T16:05:54.602Z,6.90
2022-10-11T16:08:26.418Z,4.35
2022-10-11T16:10:57.898Z,4.87
2022-10-11T16:13:29.314Z,5.50
2022-10-11T16:16:02.382Z,4.33
2022-10-11T16:18:35.745Z,9.00
2022-10-11T16:21:15.486Z,6.12
2022-10-11T16:23:47.072Z,5.08
2022-10-11T16:26:18.391Z,5.30
2022-10-11T16:28:50.758Z,5.55
2022-10-11T16:31:22.142Z,4.80
2022-10-11T16:33:55.121Z,5.00
2022-10-11T16:36:32.774Z,6.03
2022-10-11T16:39:08.608Z,7.42
2022-10-11T16:41:40.069Z,7.08
2022-10-11T16:44:14.663Z,7.58
2022-10-11T16:46:48.324Z,6.53
2022-10-11T16:49:22.536Z,5.60
2022-10-11T16:51:55.238Z,8.98
2022-10-11T16:54:27.725Z,5.72
2022-10-11T16:57:09.117Z,4.90
2022-10-11T16:59:40.835Z,6.03
2022-10-11T17:02:16.930Z,5.05
2022-10-11T17:04:50.008Z,5.47
2022-10-11T17:07:22.917Z,5.42
2022-10-11T17:09:54.224Z,5.72
2022-10-11T17:12:25.907Z,5.03
2022-10-11T17:14:57.296Z,5.35
2022-10-11T17:17:29.533Z,5.85
2022-10-11T17:20:02.233Z,6.10
2022-10-11T17:22:33.493Z,6.12
2022-10-11T17:25:05.811Z,5.50
2022-10-11T17:27:38.848Z,4.78
2022-10-11T17:30:12.927Z,5.35
2022-10-11T17:32:44.219Z,5.40
2022-10-11T17:35:15.464Z,6.45
2022-10-11T17:37:46.722Z,5.83
2022-10-11T17:40:18.490Z,5.67
2022-10-11T17:42:49.824Z,6.87
2022-10-11T17:45:21.162Z,6.47
2022-10-11T17:47:52.378Z,6.87
2022-10-11T17:50:23.673Z,7.40
2022-10-11T17:52:54.964Z,6.83
2022-10-11T17:55:26.617Z,6.30
2022-10-11T17:58:00.282Z,6.40
2022-10-11T18:00:31.671Z,6.97
2022-10-11T18:03:03.657Z,6.53
2022-10-11T18:05:35.139Z,5.15
2022-10-11T18:08:06.894Z,6.35
2022-10-11T18:10:38.956Z,5.58
2022-10-11T18:13:15.155Z,5.53
2022-10-11T18:15:43.232Z,5.37
2022-10-11T18:18:15.549Z,4.42
2022-10-11T18:20:48.670Z,4.70
2022-10-11T18:23:20.995Z,7.20
2022-10-11T18:25:53.029Z,4.85
2022-10-11T18:28:24.513Z,5.12
2022-10-11T18:30:57.453Z,4.42
2022-10-11T18:33:28.830Z,4.92
2022-10-11T18:36:02.746Z,5.72
2022-10-11T18:38:34.402Z,4.83
2022-10-11T18:41:09.835Z,5.50
2022-10-11T18:43:41.204Z,6.17
2022-10-11T18:46:14.317Z,5.53
2022-10-11T18:48:47.509Z,5.70
2022-10-11T18:51:20.469Z,5.35
2022-10-11T18:53:52.663Z,7.25
2022-10-11T18:56:24.694Z,5.03
2022-10-11T18:58:57.983Z,5.67
2022-10-11T19:01:31.689Z,6.08
2022-10-11T19:04:04.787Z,5.30
2022-10-11T19:06:38.089Z,8.20
2022-10-11T19:09:11.828Z,8.85
2022-10-11T19:11:43.381Z,7.65
2022-10-11T19:14:16.809Z,6.87
2022-10-11T19:16:51.514Z,6.00
2022-10-11T19:19:24.950Z,6.58
2022-10-11T19:21:56.750Z,5.40
2022-10-11T19:24:29.827Z,6.70
2022-10-11T19:27:03.070Z,9.40
2022-10-11T19:29:34.677Z,6.00
2022-10-11T19:32:07.385Z,6.37
2022-10-11T19:34:38.797Z,6.95
2022-10-11T19:37:11.858Z,7.00
2022-10-11T19:39:43.198Z,8.40
2022-10-11T19:42:14.441Z,6.33
2022-10-11T19:44:45.596Z,7.97
2022-10-11T19:47:17.053Z,7.62
2022-10-11T19:49:48.357Z,7.45
2022-10-11T19:52:19.604Z,7.45
2022-10-11T19:54:50.913Z,8.30
2022-10-11T19:57:22.130Z,6.22
2022-10-11T19:59:53.413Z,5.53
2022-10-11T20:02:24.548Z,5.37
2022-10-11T20:04:55.813Z,6.00
2022-10-11T20:07:27.109Z,6.50
2022-10-11T20:09:58.518Z,6.42
2022-10-11T20:12:30.028Z,13.05
2022-10-11T20:15:02.277Z,7.80
2022-10-11T20:17:48.417Z,7.55
2022-10-11T20:20:20.344Z,5.97
2022-10-11T20:22:53.778Z,7.12
2022-10-11T20:25:25.331Z,8.75
2022-10-11T20:27:56.914Z,8.80
2022-10-11T20:30:28.236Z,7.30
2022-10-11T20:32:59.659Z,10.85
2022-10-11T20:35:31.091Z,10.18
2022-10-11T20:38:02.537Z,9.10
2022-10-11T20:40:34.331Z,10.68
2022-10-11T20:43:05.666Z,8.23
2022-10-11T20:45:36.883Z,8.78
2022-10-11T20:48:08.359Z,7.97
2022-10-11T20:50:39.707Z,8.58
2022-10-11T20:53:15.591Z,7.87
2022-10-11T20:55:47.014Z,7.45
2022-10-11T20:58:22.251Z,7.87
2022-10-11T21:00:53.569Z,9.20
2022-10-11T21:03:24.903Z,8.63
2022-10-11T21:06:02.415Z,7.25
2022-10-11T21:08:34.483Z,7.65
2022-10-11T21:11:06.915Z,8.40
2022-10-11T21:13:39.207Z,7.62
2022-10-11T21:16:13.858Z,7.17
2022-10-11T21:18:45.204Z,5.92
2022-10-11T21:21:16.908Z,6.67
2022-10-11T21:23:48.637Z,6.85
2022-10-11T21:26:19.837Z,7.03
2022-10-11T21:28:51.232Z,7.33
2022-10-11T21:31:23.941Z,8.78
2022-10-11T21:33:55.456Z,8.23
2022-10-11T21:36:29.323Z,7.83
2022-10-11T21:39:00.628Z,7.95
2022-10-11T21:41:34.011Z,7.87
2022-10-11T21:44:05.710Z,7.95
2022-10-11T21:47:04.727Z,8.58
2022-10-11T21:49:09.846Z,9.10
2022-10-11T21:51:41.101Z,8.98
2022-10-11T21:54:12.613Z,8.73
2022-10-11T21:56:43.973Z,8.58
2022-10-11T21:59:15.312Z,8.28
2022-10-11T22:01:46.794Z,9.23
2022-10-11T22:04:18.094Z,7.40
2022-10-11T22:06:49.978Z,8.93
2022-10-11T22:09:21.176Z,8.88
2022-10-11T22:11:52.456Z,8.95
2022-10-11T22:14:23.715Z,8.48
2022-10-11T22:16:54.832Z,8.80
2022-10-11T22:19:26.247Z,10.00
2022-10-11T22:21:57.738Z,9.58
2022-10-11T22:24:30.233Z,8.68
2022-10-11T22:27:01.363Z,8.78
2022-10-11T22:29:34.302Z,8.40
2022-10-11T22:32:06.025Z,8.80
2022-10-11T22:34:37.266Z,8.08
2022-10-11T22:37:08.714Z,9.08
2022-10-11T22:39:39.842Z,8.88
2022-10-11T22:42:12.114Z,9.00
2022-10-11T22:44:43.294Z,9.38
2022-10-11T22:47:14.519Z,10.45
2022-10-11T22:49:45.791Z,10.20
2022-10-11T22:52:17.105Z,9.98
2022-10-11T22:54:48.352Z,9.65
2022-10-11T22:57:19.674Z,11.25
2022-10-11T22:59:51.259Z,10.95
2022-10-11T23:02:22.867Z,10.30
2022-10-11T23:04:54.542Z,10.23
2022-10-11T23:07:25.917Z,13.40
2022-10-11T23:09:58.085Z,10.98
2022-10-11T23:12:29.327Z,10.95
2022-10-11T23:15:00.839Z,12.95
2022-10-11T23:17:32.700Z,10.05
2022-10-11T23:20:07.335Z,10.60
2022-10-11T23:22:40.017Z,9.60
2022-10-11T23:25:12.253Z,13.03
2022-10-11T23:27:44.934Z,10.10
2022-10-11T23:30:16.984Z,10.18
2022-10-11T23:32:48.213Z,9.05
2022-10-11T23:35:19.526Z,9.05
2022-10-11T23:37:50.729Z,9.78
2022-10-11T23:40:23.712Z,10.55
2022-10-11T23:42:54.818Z,11.80
2022-10-11T23:45:26.081Z,10.55
2022-10-11T23:47:57.223Z,10.55
2022-10-11T23:50:28.409Z,10.43
2022-10-11T23:52:59.597Z,14.00
2022-10-11T23:55:30.892Z,10.18
2022-10-11T23:58:02.114Z,11.75
